UAE815 OMDB-OERK
Flight info
| Callsign | UAE815 |
|---|---|
| Flight time | 1h 27m |
| Altitude | 38000 |
| Route | VUXOD DCT MUSEN DCT GOLGU DCT OBSEP DCT AMBAG DCT NAGUB |
| Aircraft | B77W/H-SDE1E2E3FGHIJ2J3J4J5M1RWXY/LB1D1 |
Departure
| Time | 2026-05-06 13:02 |
|---|---|
| Airport | Dubai International Airport (OMDB) |
Arrival
| Time | 2026-05-06 14:30 |
|---|---|
| Airport | King Khalid International Airport (OERK) |
| Time | Latitude | Longitude | Altitude | Speed | Heading |
|---|---|---|---|---|---|
| 2026-05-06 12:26 | 25.24524 | 55.37048 | 29 ft | 0 kts | 211° |
| 2026-05-06 12:49 | 25.24532 | 55.37053 | 26 ft | 4 kts | 211° |
| 2026-05-06 12:50 | 25.24555 | 55.37069 | 32 ft | 4 kts | 211° |
| 2026-05-06 12:50 | 25.24574 | 55.37082 | 32 ft | 2 kts | 211° |
| 2026-05-06 12:50 | 25.24597 | 55.37093 | 32 ft | 4 kts | 180° |
| 2026-05-06 12:50 | 25.24619 | 55.37084 | 29 ft | 4 kts | 129° |
| 2026-05-06 12:51 | 25.24634 | 55.37061 | 32 ft | 4 kts | 122° |
| 2026-05-06 12:51 | 25.24643 | 55.37044 | 32 ft | 0 kts | 122° |
| 2026-05-06 12:54 | 25.24643 | 55.37045 | 26 ft | 1 kts | 122° |
| 2026-05-06 12:54 | 25.24631 | 55.37066 | 29 ft | 7 kts | 122° |
| 2026-05-06 12:55 | 25.24593 | 55.37134 | 28 ft | 12 kts | 122° |
| 2026-05-06 12:55 | 25.24549 | 55.37210 | 30 ft | 12 kts | 122° |
| 2026-05-06 12:55 | 25.24507 | 55.37286 | 31 ft | 12 kts | 122° |
| 2026-05-06 12:55 | 25.24464 | 55.37362 | 31 ft | 12 kts | 122° |
| 2026-05-06 12:56 | 25.24431 | 55.37446 | 30 ft | 12 kts | 101° |
| 2026-05-06 12:56 | 25.24426 | 55.37540 | 29 ft | 12 kts | 91° |
| 2026-05-06 12:56 | 25.24410 | 55.37631 | 29 ft | 12 kts | 111° |
| 2026-05-06 12:56 | 25.24380 | 55.37702 | 27 ft | 7 kts | 101° |
| 2026-05-06 12:57 | 25.24385 | 55.37732 | 26 ft | 3 kts | 68° |
| 2026-05-06 12:57 | 25.24390 | 55.37739 | 26 ft | 0 kts | 55° |
| 2026-05-06 12:58 | 25.24390 | 55.37740 | 26 ft | 1 kts | 55° |
| 2026-05-06 12:58 | 25.24394 | 55.37745 | 26 ft | 0 kts | 49° |
| 2026-05-06 12:59 | 25.24414 | 55.37765 | 27 ft | 10 kts | 38° |
| 2026-05-06 13:00 | 25.24510 | 55.37838 | 28 ft | 20 kts | 34° |
| 2026-05-06 13:00 | 25.24626 | 55.37925 | 27 ft | 19 kts | 33° |
| 2026-05-06 13:00 | 25.24734 | 55.38003 | 29 ft | 19 kts | 32° |
| 2026-05-06 13:00 | 25.24788 | 55.38034 | 30 ft | 6 kts | 5° |
| 2026-05-06 13:01 | 25.24813 | 55.38012 | 30 ft | 3 kts | 306° |
| 2026-05-06 13:01 | 25.24819 | 55.38001 | 30 ft | 0 kts | 301° |
| 2026-05-06 13:01 | 25.24854 | 55.37938 | 30 ft | 25 kts | 301° |
| 2026-05-06 13:01 | 25.25075 | 55.37544 | 32 ft | 98 kts | 302° |
| 2026-05-06 13:02 | 25.25552 | 55.36687 | 30 ft | 161 kts | 302° |
| 2026-05-06 13:02 | 25.26191 | 55.35506 | 285 ft | 183 kts | 301° |
| 2026-05-06 13:02 | 25.26829 | 55.34277 | 882 ft | 187 kts | 304° |
| 2026-05-06 13:02 | 25.27499 | 55.33074 | 1533 ft | 187 kts | 303° |
| 2026-05-06 13:03 | 25.28217 | 55.31820 | 1962 ft | 199 kts | 302° |
| 2026-05-06 13:03 | 25.28974 | 55.30513 | 2476 ft | 203 kts | 297° |
| 2026-05-06 13:03 | 25.29286 | 55.29015 | 2943 ft | 203 kts | 257° |
| 2026-05-06 13:03 | 25.28791 | 55.27586 | 3529 ft | 200 kts | 243° |
| 2026-05-06 13:04 | 25.28184 | 55.26174 | 4028 ft | 206 kts | 243° |
| 2026-05-06 13:04 | 25.27571 | 55.24746 | 4619 ft | 207 kts | 242° |
| 2026-05-06 13:04 | 25.26945 | 55.23289 | 5071 ft | 216 kts | 242° |
| 2026-05-06 13:04 | 25.26265 | 55.21706 | 5282 ft | 241 kts | 242° |
| 2026-05-06 13:05 | 25.25505 | 55.19937 | 5469 ft | 267 kts | 243° |
| 2026-05-06 13:05 | 25.24711 | 55.18073 | 6025 ft | 276 kts | 243° |
| 2026-05-06 13:05 | 25.23877 | 55.16140 | 6684 ft | 282 kts | 240° |
| 2026-05-06 13:05 | 25.22912 | 55.14234 | 7383 ft | 286 kts | 238° |
| 2026-05-06 13:06 | 25.21896 | 55.12325 | 8103 ft | 290 kts | 238° |
| 2026-05-06 13:06 | 25.20869 | 55.10386 | 8806 ft | 295 kts | 238° |
| 2026-05-06 13:06 | 25.19865 | 55.08388 | 9520 ft | 301 kts | 243° |
| 2026-05-06 13:06 | 25.19035 | 55.06246 | 10167 ft | 306 kts | 247° |
| 2026-05-06 13:07 | 25.18517 | 55.04780 | 10502 ft | 316 kts | 248° |
| 2026-05-06 13:07 | 25.17394 | 55.01632 | 10751 ft | 349 kts | 247° |
| 2026-05-06 13:07 | 25.16446 | 54.99055 | 10922 ft | 374 kts | 248° |
| 2026-05-06 13:07 | 25.15374 | 54.96415 | 11369 ft | 382 kts | 238° |
| 2026-05-06 13:08 | 25.13620 | 54.94169 | 11985 ft | 390 kts | 218° |
| 2026-05-06 13:08 | 25.11276 | 54.92662 | 12843 ft | 393 kts | 200° |
| 2026-05-06 13:08 | 25.09535 | 54.92108 | 13388 ft | 395 kts | 188° |
| 2026-05-06 13:08 | 25.06798 | 54.92061 | 14072 ft | 396 kts | 174° |
| 2026-05-06 13:09 | 25.04026 | 54.92324 | 14729 ft | 403 kts | 174° |
| 2026-05-06 13:09 | 25.01233 | 54.92608 | 15568 ft | 404 kts | 174° |
| 2026-05-06 13:09 | 24.97516 | 54.92955 | 16681 ft | 407 kts | 175° |
| 2026-05-06 13:09 | 24.94680 | 54.93190 | 17463 ft | 411 kts | 175° |
| 2026-05-06 13:10 | 24.92746 | 54.93343 | 17990 ft | 414 kts | 176° |
| 2026-05-06 13:10 | 24.89904 | 54.93545 | 18631 ft | 416 kts | 179° |
| 2026-05-06 13:10 | 24.87005 | 54.93298 | 19173 ft | 422 kts | 191° |
| 2026-05-06 13:10 | 24.84165 | 54.92387 | 19790 ft | 427 kts | 202° |
| 2026-05-06 13:11 | 24.81517 | 54.90921 | 20474 ft | 427 kts | 211° |
| 2026-05-06 13:11 | 24.78093 | 54.88719 | 21340 ft | 432 kts | 211° |
| 2026-05-06 13:11 | 24.75488 | 54.87036 | 21991 ft | 436 kts | 212° |
| 2026-05-06 13:11 | 24.72861 | 54.85351 | 22671 ft | 439 kts | 212° |
| 2026-05-06 13:12 | 24.71103 | 54.84232 | 23105 ft | 441 kts | 212° |
| 2026-05-06 13:12 | 24.68434 | 54.82542 | 23644 ft | 445 kts | 212° |
| 2026-05-06 13:12 | 24.65734 | 54.80843 | 24150 ft | 449 kts | 211° |
| 2026-05-06 13:12 | 24.63015 | 54.79138 | 24685 ft | 451 kts | 212° |
| 2026-05-06 13:13 | 24.60284 | 54.77429 | 25238 ft | 453 kts | 212° |
| 2026-05-06 13:13 | 24.56644 | 54.75153 | 25913 ft | 456 kts | 212° |
| 2026-05-06 13:13 | 24.54793 | 54.73995 | 26237 ft | 459 kts | 212° |
| 2026-05-06 13:13 | 24.52017 | 54.72259 | 26754 ft | 461 kts | 212° |
| 2026-05-06 13:14 | 24.49258 | 54.70535 | 27279 ft | 463 kts | 212° |
| 2026-05-06 13:14 | 24.46456 | 54.68785 | 27806 ft | 464 kts | 212° |
| 2026-05-06 13:14 | 24.43642 | 54.67028 | 28297 ft | 467 kts | 212° |
| 2026-05-06 13:14 | 24.40817 | 54.65264 | 28754 ft | 470 kts | 212° |
| 2026-05-06 13:15 | 24.37967 | 54.63486 | 29209 ft | 472 kts | 212° |
| 2026-05-06 13:15 | 24.35106 | 54.61702 | 29649 ft | 474 kts | 212° |
| 2026-05-06 13:15 | 24.32236 | 54.59901 | 30020 ft | 476 kts | 213° |
| 2026-05-06 13:15 | 24.29408 | 54.57995 | 30349 ft | 478 kts | 215° |
| 2026-05-06 13:16 | 24.26756 | 54.55893 | 30665 ft | 476 kts | 223° |
| 2026-05-06 13:16 | 24.24397 | 54.53367 | 31055 ft | 474 kts | 230° |
| 2026-05-06 13:16 | 24.22294 | 54.50604 | 31520 ft | 470 kts | 235° |
| 2026-05-06 13:16 | 24.20526 | 54.47620 | 32012 ft | 465 kts | 242° |
| 2026-05-06 13:17 | 24.18950 | 54.44542 | 32508 ft | 462 kts | 243° |
| 2026-05-06 13:17 | 24.17404 | 54.41471 | 33005 ft | 460 kts | 243° |
| 2026-05-06 13:17 | 24.15865 | 54.38410 | 33463 ft | 458 kts | 243° |
| 2026-05-06 13:17 | 24.14326 | 54.35364 | 33895 ft | 456 kts | 243° |
| 2026-05-06 13:18 | 24.12786 | 54.32339 | 34259 ft | 455 kts | 243° |
| 2026-05-06 13:18 | 24.11260 | 54.29359 | 34574 ft | 455 kts | 243° |
| 2026-05-06 13:18 | 24.09709 | 54.26343 | 34888 ft | 455 kts | 242° |
| 2026-05-06 13:18 | 24.08156 | 54.23332 | 35201 ft | 454 kts | 242° |
| 2026-05-06 13:19 | 24.06607 | 54.20333 | 35558 ft | 453 kts | 242° |
| 2026-05-06 13:19 | 24.05051 | 54.17324 | 35677 ft | 457 kts | 242° |
| 2026-05-06 13:19 | 24.03483 | 54.14291 | 35715 ft | 459 kts | 242° |
| 2026-05-06 13:20 | 24.00351 | 54.08242 | 35719 ft | 454 kts | 242° |
| 2026-05-06 13:20 | 23.97274 | 54.02307 | 35744 ft | 451 kts | 242° |
| 2026-05-06 13:21 | 23.94185 | 53.96352 | 35741 ft | 450 kts | 242° |
| 2026-05-06 13:21 | 23.91099 | 53.90408 | 35745 ft | 450 kts | 242° |
| 2026-05-06 13:22 | 23.88014 | 53.84477 | 35747 ft | 450 kts | 242° |
| 2026-05-06 13:22 | 23.84935 | 53.78562 | 35749 ft | 451 kts | 242° |
| 2026-05-06 13:23 | 23.81829 | 53.72605 | 35753 ft | 452 kts | 242° |
| 2026-05-06 13:23 | 23.78713 | 53.66634 | 35750 ft | 453 kts | 242° |
| 2026-05-06 13:24 | 23.75593 | 53.60664 | 35749 ft | 453 kts | 242° |
| 2026-05-06 13:24 | 23.72486 | 53.54726 | 35743 ft | 454 kts | 242° |
| 2026-05-06 13:25 | 23.69357 | 53.48753 | 35744 ft | 454 kts | 242° |
| 2026-05-06 13:25 | 23.66223 | 53.42778 | 35745 ft | 454 kts | 242° |
| 2026-05-06 13:26 | 23.63083 | 53.36798 | 35745 ft | 454 kts | 242° |
| 2026-05-06 13:26 | 23.59962 | 53.30860 | 35745 ft | 454 kts | 242° |
| 2026-05-06 13:27 | 23.56818 | 53.24889 | 35744 ft | 454 kts | 242° |
| 2026-05-06 13:27 | 23.53673 | 53.18920 | 35741 ft | 454 kts | 242° |
| 2026-05-06 13:28 | 23.50526 | 53.12956 | 35735 ft | 454 kts | 242° |
| 2026-05-06 13:28 | 23.47376 | 53.06993 | 35732 ft | 454 kts | 242° |
| 2026-05-06 13:29 | 23.44250 | 53.01083 | 35735 ft | 454 kts | 241° |
| 2026-05-06 13:29 | 23.41100 | 52.95134 | 35735 ft | 453 kts | 241° |
| 2026-05-06 13:30 | 23.37949 | 52.89189 | 35736 ft | 453 kts | 241° |
| 2026-05-06 13:30 | 23.34795 | 52.83248 | 35738 ft | 453 kts | 241° |
| 2026-05-06 13:31 | 23.31662 | 52.77351 | 35730 ft | 453 kts | 241° |
| 2026-05-06 13:31 | 23.28507 | 52.71419 | 35725 ft | 453 kts | 241° |
| 2026-05-06 13:32 | 23.25351 | 52.65493 | 35729 ft | 453 kts | 241° |
| 2026-05-06 13:32 | 23.22190 | 52.59563 | 35729 ft | 453 kts | 241° |
| 2026-05-06 13:33 | 23.19175 | 52.53614 | 35720 ft | 452 kts | 246° |
| 2026-05-06 13:33 | 23.17003 | 52.47223 | 35723 ft | 451 kts | 255° |
| 2026-05-06 13:34 | 23.15530 | 52.40599 | 35721 ft | 451 kts | 257° |
| 2026-05-06 13:34 | 23.14087 | 52.33959 | 35723 ft | 451 kts | 256° |
| 2026-05-06 13:35 | 23.12635 | 52.27372 | 35725 ft | 451 kts | 256° |
| 2026-05-06 13:35 | 23.11157 | 52.20742 | 35726 ft | 452 kts | 256° |
| 2026-05-06 13:36 | 23.09672 | 52.14115 | 35725 ft | 451 kts | 256° |
| 2026-05-06 13:36 | 23.08185 | 52.07491 | 35724 ft | 452 kts | 256° |
| 2026-05-06 13:37 | 23.06705 | 52.00912 | 35726 ft | 451 kts | 256° |
| 2026-05-06 13:37 | 23.05214 | 51.94295 | 35722 ft | 451 kts | 256° |
| 2026-05-06 13:38 | 23.03719 | 51.87677 | 35719 ft | 451 kts | 256° |
| 2026-05-06 13:38 | 23.02223 | 51.81062 | 35721 ft | 451 kts | 256° |
| 2026-05-06 13:39 | 23.00725 | 51.74457 | 35725 ft | 451 kts | 256° |
| 2026-05-06 13:39 | 22.99234 | 51.67893 | 35722 ft | 451 kts | 256° |
| 2026-05-06 13:40 | 22.97730 | 51.61289 | 35722 ft | 451 kts | 256° |
| 2026-05-06 13:40 | 22.96223 | 51.54684 | 35726 ft | 451 kts | 256° |
| 2026-05-06 13:41 | 22.94715 | 51.48084 | 35717 ft | 451 kts | 256° |
| 2026-05-06 13:41 | 22.93213 | 51.41529 | 35721 ft | 451 kts | 256° |
| 2026-05-06 13:42 | 22.91700 | 51.34933 | 35725 ft | 451 kts | 256° |
| 2026-05-06 13:42 | 22.90184 | 51.28340 | 35726 ft | 451 kts | 255° |
| 2026-05-06 13:43 | 22.88665 | 51.21744 | 35728 ft | 451 kts | 255° |
| 2026-05-06 13:43 | 22.87325 | 51.15159 | 35722 ft | 451 kts | 262° |
| 2026-05-06 13:44 | 22.86942 | 51.08366 | 35726 ft | 452 kts | 269° |
| 2026-05-06 13:44 | 22.87388 | 51.01553 | 35730 ft | 453 kts | 273° |
| 2026-05-06 13:45 | 22.87952 | 50.94740 | 35726 ft | 454 kts | 273° |
| 2026-05-06 13:45 | 22.88762 | 50.84554 | 35733 ft | 454 kts | 273° |
| 2026-05-06 13:46 | 22.89281 | 50.77728 | 35731 ft | 454 kts | 272° |
| 2026-05-06 13:46 | 22.89794 | 50.70899 | 35733 ft | 454 kts | 272° |
| 2026-05-06 13:47 | 22.90303 | 50.64086 | 35730 ft | 454 kts | 272° |
| 2026-05-06 13:47 | 22.90807 | 50.57298 | 35744 ft | 454 kts | 272° |
| 2026-05-06 13:48 | 22.91312 | 50.50472 | 35731 ft | 454 kts | 272° |
| 2026-05-06 13:48 | 22.91812 | 50.43666 | 35733 ft | 453 kts | 272° |
| 2026-05-06 13:49 | 22.92310 | 50.36855 | 35731 ft | 453 kts | 272° |
| 2026-05-06 13:49 | 22.92801 | 50.30087 | 35730 ft | 452 kts | 272° |
| 2026-05-06 13:50 | 22.93292 | 50.23289 | 35732 ft | 452 kts | 272° |
| 2026-05-06 13:50 | 22.93779 | 50.16499 | 35732 ft | 452 kts | 272° |
| 2026-05-06 13:51 | 22.94265 | 50.09689 | 35736 ft | 452 kts | 272° |
| 2026-05-06 13:51 | 22.94744 | 50.02928 | 35733 ft | 452 kts | 272° |
| 2026-05-06 13:52 | 22.95224 | 49.96122 | 35736 ft | 453 kts | 272° |
| 2026-05-06 13:52 | 22.95701 | 49.89311 | 35741 ft | 453 kts | 272° |
| 2026-05-06 13:53 | 22.96172 | 49.82546 | 35733 ft | 452 kts | 272° |
| 2026-05-06 13:53 | 22.96643 | 49.75742 | 35738 ft | 452 kts | 272° |
| 2026-05-06 13:54 | 22.97110 | 49.68947 | 35728 ft | 452 kts | 272° |
| 2026-05-06 13:54 | 22.97572 | 49.62187 | 35739 ft | 452 kts | 272° |
| 2026-05-06 13:55 | 22.98031 | 49.55424 | 35736 ft | 452 kts | 272° |
| 2026-05-06 13:55 | 22.98490 | 49.48627 | 35731 ft | 452 kts | 272° |
| 2026-05-06 13:56 | 22.98946 | 49.41817 | 35732 ft | 452 kts | 272° |
| 2026-05-06 13:56 | 22.99400 | 49.35010 | 35735 ft | 453 kts | 272° |
| 2026-05-06 13:57 | 22.99848 | 49.28232 | 35737 ft | 453 kts | 272° |
| 2026-05-06 13:57 | 23.00296 | 49.21417 | 35731 ft | 453 kts | 272° |
| 2026-05-06 13:58 | 23.00741 | 49.14608 | 35743 ft | 452 kts | 272° |
| 2026-05-06 13:58 | 23.01180 | 49.07846 | 35742 ft | 452 kts | 272° |
| 2026-05-06 13:59 | 23.01618 | 49.01049 | 35740 ft | 451 kts | 271° |
| 2026-05-06 13:59 | 23.02053 | 48.94255 | 35741 ft | 451 kts | 271° |
| 2026-05-06 14:00 | 23.02485 | 48.87458 | 35745 ft | 451 kts | 271° |
| 2026-05-06 14:00 | 23.02912 | 48.80708 | 35752 ft | 451 kts | 271° |
| 2026-05-06 14:01 | 23.03336 | 48.73935 | 35747 ft | 451 kts | 271° |
| 2026-05-06 14:01 | 23.03759 | 48.67150 | 35749 ft | 451 kts | 271° |
| 2026-05-06 14:02 | 23.04179 | 48.60357 | 35760 ft | 451 kts | 271° |
| 2026-05-06 14:02 | 23.04594 | 48.53609 | 35751 ft | 451 kts | 271° |
| 2026-05-06 14:03 | 23.05008 | 48.46821 | 35754 ft | 450 kts | 271° |
| 2026-05-06 14:03 | 23.05419 | 48.40045 | 35750 ft | 450 kts | 271° |
| 2026-05-06 14:04 | 23.05826 | 48.33273 | 35755 ft | 449 kts | 271° |
| 2026-05-06 14:04 | 23.06230 | 48.26513 | 35754 ft | 449 kts | 271° |
| 2026-05-06 14:05 | 23.06628 | 48.19808 | 35761 ft | 449 kts | 271° |
| 2026-05-06 14:05 | 23.07026 | 48.13046 | 35758 ft | 449 kts | 271° |
| 2026-05-06 14:06 | 23.07420 | 48.06293 | 35750 ft | 448 kts | 271° |
| 2026-05-06 14:06 | 23.07809 | 47.99591 | 35773 ft | 448 kts | 271° |
| 2026-05-06 14:07 | 23.08199 | 47.92834 | 35768 ft | 448 kts | 271° |
| 2026-05-06 14:07 | 23.08585 | 47.86091 | 35761 ft | 447 kts | 271° |
| 2026-05-06 14:08 | 23.09695 | 47.79485 | 35762 ft | 454 kts | 291° |
| 2026-05-06 14:08 | 23.11342 | 47.76525 | 35781 ft | 461 kts | 302° |
| 2026-05-06 14:08 | 23.13473 | 47.73952 | 35773 ft | 471 kts | 314° |
| 2026-05-06 14:09 | 23.19030 | 47.70055 | 35781 ft | 479 kts | 324° |
| 2026-05-06 14:09 | 23.21931 | 47.68187 | 35046 ft | 492 kts | 323° |
| 2026-05-06 14:09 | 23.24873 | 47.66270 | 34305 ft | 493 kts | 323° |
| 2026-05-06 14:10 | 23.27810 | 47.64324 | 33430 ft | 494 kts | 323° |
| 2026-05-06 14:10 | 23.30737 | 47.62355 | 32506 ft | 495 kts | 323° |
| 2026-05-06 14:10 | 23.33657 | 47.60373 | 31776 ft | 493 kts | 323° |
| 2026-05-06 14:10 | 23.36547 | 47.58407 | 31185 ft | 487 kts | 322° |
| 2026-05-06 14:11 | 23.39374 | 47.56482 | 30604 ft | 484 kts | 322° |
| 2026-05-06 14:11 | 23.42216 | 47.54549 | 30040 ft | 480 kts | 322° |
| 2026-05-06 14:11 | 23.45042 | 47.52629 | 29391 ft | 478 kts | 323° |
| 2026-05-06 14:11 | 23.47925 | 47.50840 | 28768 ft | 478 kts | 328° |
| 2026-05-06 14:12 | 23.50906 | 47.49291 | 28173 ft | 476 kts | 330° |
| 2026-05-06 14:12 | 23.53911 | 47.47777 | 27615 ft | 474 kts | 330° |
| 2026-05-06 14:12 | 23.56902 | 47.46278 | 27044 ft | 472 kts | 330° |
| 2026-05-06 14:12 | 23.59865 | 47.44788 | 26486 ft | 467 kts | 330° |
| 2026-05-06 14:13 | 23.62766 | 47.43319 | 25945 ft | 463 kts | 330° |
| 2026-05-06 14:13 | 23.65672 | 47.41839 | 25389 ft | 460 kts | 330° |
| 2026-05-06 14:13 | 23.68563 | 47.40359 | 24821 ft | 457 kts | 330° |
| 2026-05-06 14:13 | 23.71430 | 47.38886 | 24273 ft | 455 kts | 330° |
| 2026-05-06 14:14 | 23.74284 | 47.37419 | 23733 ft | 452 kts | 331° |
| 2026-05-06 14:14 | 23.77122 | 47.35959 | 23144 ft | 450 kts | 331° |
| 2026-05-06 14:14 | 23.79910 | 47.34524 | 22541 ft | 447 kts | 332° |
| 2026-05-06 14:14 | 23.82709 | 47.33085 | 22001 ft | 443 kts | 332° |
| 2026-05-06 14:15 | 23.85485 | 47.31656 | 21448 ft | 439 kts | 332° |
| 2026-05-06 14:15 | 23.88240 | 47.30238 | 20918 ft | 436 kts | 332° |
| 2026-05-06 14:15 | 23.90975 | 47.28829 | 20403 ft | 433 kts | 332° |
| 2026-05-06 14:15 | 23.93689 | 47.27430 | 19888 ft | 430 kts | 333° |
| 2026-05-06 14:16 | 23.96388 | 47.26038 | 19378 ft | 428 kts | 333° |
| 2026-05-06 14:16 | 23.99079 | 47.24649 | 18845 ft | 427 kts | 333° |
| 2026-05-06 14:16 | 24.01728 | 47.23282 | 18323 ft | 426 kts | 334° |
| 2026-05-06 14:16 | 24.04407 | 47.21899 | 17751 ft | 426 kts | 334° |
| 2026-05-06 14:17 | 24.07080 | 47.20519 | 17176 ft | 424 kts | 334° |
| 2026-05-06 14:17 | 24.09746 | 47.19142 | 16646 ft | 421 kts | 334° |
| 2026-05-06 14:17 | 24.12390 | 47.17775 | 16134 ft | 419 kts | 334° |
| 2026-05-06 14:17 | 24.15016 | 47.16417 | 15642 ft | 416 kts | 334° |
| 2026-05-06 14:18 | 24.17631 | 47.15063 | 15131 ft | 415 kts | 334° |
| 2026-05-06 14:18 | 24.20232 | 47.13717 | 14638 ft | 413 kts | 334° |
| 2026-05-06 14:18 | 24.22791 | 47.12391 | 14128 ft | 412 kts | 334° |
| 2026-05-06 14:18 | 24.25385 | 47.11047 | 13594 ft | 412 kts | 335° |
| 2026-05-06 14:19 | 24.27970 | 47.09707 | 13033 ft | 411 kts | 335° |
| 2026-05-06 14:19 | 24.30546 | 47.08372 | 12506 ft | 409 kts | 334° |
| 2026-05-06 14:19 | 24.33112 | 47.07041 | 11978 ft | 406 kts | 334° |
| 2026-05-06 14:19 | 24.35642 | 47.05727 | 11459 ft | 403 kts | 334° |
| 2026-05-06 14:20 | 24.38177 | 47.04410 | 11084 ft | 398 kts | 334° |
| 2026-05-06 14:20 | 24.40576 | 47.03123 | 10836 ft | 375 kts | 331° |
| 2026-05-06 14:20 | 24.42774 | 47.01756 | 10641 ft | 359 kts | 328° |
| 2026-05-06 14:20 | 24.44886 | 47.00387 | 10497 ft | 342 kts | 328° |
| 2026-05-06 14:21 | 24.46864 | 46.99126 | 10337 ft | 318 kts | 328° |
| 2026-05-06 14:21 | 24.48769 | 46.97925 | 10222 ft | 312 kts | 328° |
| 2026-05-06 14:21 | 24.50632 | 46.96755 | 10095 ft | 304 kts | 328° |
| 2026-05-06 14:21 | 24.52417 | 46.95635 | 9970 ft | 295 kts | 327° |
| 2026-05-06 14:22 | 24.54186 | 46.94524 | 9655 ft | 295 kts | 327° |
| 2026-05-06 14:22 | 24.55955 | 46.93413 | 9308 ft | 294 kts | 327° |
| 2026-05-06 14:22 | 24.57725 | 46.92302 | 8978 ft | 293 kts | 328° |
| 2026-05-06 14:22 | 24.59495 | 46.91191 | 8642 ft | 292 kts | 327° |
| 2026-05-06 14:23 | 24.61252 | 46.90088 | 8360 ft | 289 kts | 327° |
| 2026-05-06 14:23 | 24.62966 | 46.89012 | 8227 ft | 279 kts | 327° |
| 2026-05-06 14:23 | 24.64605 | 46.87983 | 8071 ft | 271 kts | 327° |
| 2026-05-06 14:23 | 24.66237 | 46.86958 | 7762 ft | 270 kts | 328° |
| 2026-05-06 14:24 | 24.67878 | 46.85974 | 7501 ft | 268 kts | 328° |
| 2026-05-06 14:24 | 24.69507 | 46.84980 | 7178 ft | 268 kts | 327° |
| 2026-05-06 14:24 | 24.71130 | 46.83963 | 6854 ft | 267 kts | 327° |
| 2026-05-06 14:24 | 24.72694 | 46.82975 | 6523 ft | 253 kts | 327° |
| 2026-05-06 14:25 | 24.74189 | 46.82028 | 6214 ft | 243 kts | 327° |
| 2026-05-06 14:25 | 24.75634 | 46.81113 | 5924 ft | 236 kts | 327° |
| 2026-05-06 14:25 | 24.77012 | 46.80240 | 5630 ft | 227 kts | 326° |
| 2026-05-06 14:25 | 24.78352 | 46.79391 | 5373 ft | 220 kts | 327° |
| 2026-05-06 14:26 | 24.79698 | 46.78535 | 5114 ft | 227 kts | 326° |
| 2026-05-06 14:26 | 24.81066 | 46.77668 | 4814 ft | 226 kts | 325° |
| 2026-05-06 14:26 | 24.82400 | 46.76822 | 4525 ft | 218 kts | 326° |
| 2026-05-06 14:26 | 24.83684 | 46.76009 | 4221 ft | 207 kts | 326° |
| 2026-05-06 14:27 | 24.84896 | 46.75242 | 4001 ft | 192 kts | 325° |
| 2026-05-06 14:27 | 24.85999 | 46.74542 | 3797 ft | 175 kts | 326° |
| 2026-05-06 14:27 | 24.86986 | 46.73911 | 3618 ft | 160 kts | 329° |
| 2026-05-06 14:27 | 24.87929 | 46.73313 | 3446 ft | 154 kts | 330° |
| 2026-05-06 14:28 | 24.88835 | 46.72737 | 3243 ft | 148 kts | 335° |
| 2026-05-06 14:28 | 24.89719 | 46.72176 | 3081 ft | 146 kts | 336° |
| 2026-05-06 14:28 | 24.90596 | 46.71618 | 2888 ft | 147 kts | 334° |
| 2026-05-06 14:28 | 24.91482 | 46.71058 | 2648 ft | 144 kts | 329° |
| 2026-05-06 14:29 | 24.92317 | 46.70518 | 2421 ft | 135 kts | 329° |
| 2026-05-06 14:29 | 24.93125 | 46.70006 | 2303 ft | 138 kts | 328° |
| 2026-05-06 14:29 | 24.93942 | 46.69483 | 2090 ft | 134 kts | 328° |
| 2026-05-06 14:29 | 24.94696 | 46.69006 | 2039 ft | 111 kts | 330° |
| 2026-05-06 14:30 | 24.95220 | 46.68675 | 2038 ft | 55 kts | 330° |
| 2026-05-06 14:30 | 24.95537 | 46.68475 | 2038 ft | 44 kts | 330° |
| 2026-05-06 14:30 | 24.95734 | 46.68369 | 2035 ft | 28 kts | 342° |
| 2026-05-06 14:30 | 24.95909 | 46.68348 | 2034 ft | 23 kts | 9° |
| 2026-05-06 14:31 | 24.96025 | 46.68430 | 2040 ft | 19 kts | 58° |
| 2026-05-06 14:31 | 24.96092 | 46.68555 | 2038 ft | 19 kts | 59° |
| 2026-05-06 14:31 | 24.96160 | 46.68681 | 2043 ft | 19 kts | 60° |
| 2026-05-06 14:31 | 24.96223 | 46.68806 | 2047 ft | 19 kts | 60° |
| 2026-05-06 14:32 | 24.96291 | 46.68936 | 2046 ft | 22 kts | 60° |
| 2026-05-06 14:32 | 24.96378 | 46.69102 | 2051 ft | 25 kts | 59° |
| 2026-05-06 14:32 | 24.96467 | 46.69270 | 2053 ft | 26 kts | 60° |
| 2026-05-06 14:32 | 24.96556 | 46.69440 | 2052 ft | 25 kts | 60° |
| 2026-05-06 14:33 | 24.96642 | 46.69603 | 2049 ft | 23 kts | 60° |
| 2026-05-06 14:33 | 24.96710 | 46.69733 | 2047 ft | 19 kts | 60° |
| 2026-05-06 14:33 | 24.96781 | 46.69867 | 2042 ft | 21 kts | 59° |
| 2026-05-06 14:33 | 24.96845 | 46.69989 | 2044 ft | 16 kts | 60° |
| 2026-05-06 14:34 | 24.96897 | 46.70091 | 2038 ft | 15 kts | 60° |
| 2026-05-06 14:34 | 24.96929 | 46.70176 | 2039 ft | 8 kts | 99° |
| 2026-05-06 14:34 | 24.96887 | 46.70226 | 2038 ft | 11 kts | 144° |
| 2026-05-06 14:34 | 24.96805 | 46.70278 | 2038 ft | 16 kts | 150° |
| 2026-05-06 14:35 | 24.96690 | 46.70350 | 2039 ft | 20 kts | 150° |
| 2026-05-06 14:35 | 24.96567 | 46.70428 | 2038 ft | 20 kts | 150° |
| 2026-05-06 14:35 | 24.96444 | 46.70506 | 2038 ft | 20 kts | 150° |
| 2026-05-06 14:35 | 24.96320 | 46.70584 | 2038 ft | 20 kts | 150° |
| 2026-05-06 14:36 | 24.96199 | 46.70660 | 2041 ft | 20 kts | 150° |
| 2026-05-06 14:36 | 24.96075 | 46.70738 | 2038 ft | 20 kts | 150° |
| 2026-05-06 14:36 | 24.95951 | 46.70816 | 2038 ft | 20 kts | 150° |
| 2026-05-06 14:36 | 24.95828 | 46.70894 | 2040 ft | 20 kts | 150° |
| 2026-05-06 14:37 | 24.95704 | 46.70972 | 2038 ft | 20 kts | 150° |
| 2026-05-06 14:37 | 24.95581 | 46.71050 | 2037 ft | 20 kts | 150° |
| 2026-05-06 14:37 | 24.95457 | 46.71128 | 2039 ft | 20 kts | 150° |
| 2026-05-06 14:37 | 24.95333 | 46.71205 | 2040 ft | 20 kts | 150° |
| 2026-05-06 14:38 | 24.95211 | 46.71281 | 2034 ft | 20 kts | 150° |
| 2026-05-06 14:38 | 24.95087 | 46.71358 | 2035 ft | 20 kts | 150° |
| 2026-05-06 14:38 | 24.94966 | 46.71437 | 2037 ft | 20 kts | 149° |
| 2026-05-06 14:38 | 24.94852 | 46.71509 | 2033 ft | 15 kts | 150° |
| 2026-05-06 14:39 | 24.94784 | 46.71549 | 2037 ft | 10 kts | 164° |
| 2026-05-06 14:39 | 24.94729 | 46.71510 | 2037 ft | 10 kts | 236° |
| 2026-05-06 14:39 | 24.94692 | 46.71442 | 2038 ft | 10 kts | 240° |
| 2026-05-06 14:39 | 24.94657 | 46.71374 | 2038 ft | 10 kts | 240° |
| 2026-05-06 14:40 | 24.94621 | 46.71306 | 2036 ft | 10 kts | 240° |
| 2026-05-06 14:40 | 24.94590 | 46.71272 | 2037 ft | 6 kts | 199° |
| 2026-05-06 14:40 | 24.94549 | 46.71276 | 2039 ft | 6 kts | 160° |
| 2026-05-06 14:40 | 24.94511 | 46.71298 | 2038 ft | 6 kts | 146° |
| 2026-05-06 14:41 | 24.94471 | 46.71300 | 2040 ft | 6 kts | 215° |
| 2026-05-06 14:41 | 24.94443 | 46.71261 | 2036 ft | 7 kts | 237° |
| 2026-05-06 14:41 | 24.94425 | 46.71229 | 2041 ft | 2 kts | 239° |
| 2026-05-06 14:41 | 24.94420 | 46.71220 | 2038 ft | 0 kts | 239° |
| 2026-05-06 14:45 | 24.94414 | 46.71208 | 2037 ft | 0 kts | 239° |